Time;durP1;ratioP1;P1;durP2;ratioP2;P2;SDS_P1;SDS_P2;PMS_P1;PMS_P2;Temp;Humidity;BMP_temperature;BMP_pressure;BME280_temperature;BME280_humidity;BME280_pressure;Samples;Min_cycle;Max_cycle;Signal;HPM_P1;HPM_P2
2023/10/18 00:00:03;;;;;;;2.77;1.80;;;;;;;19.12;52.88;96128.38;10448118;28;20041;-29
2023/10/18 00:05:10;;;;;;;2.90;1.63;;;;;;;19.09;53.28;96123.38;10444902;28;20043;-29
2023/10/18 00:10:11;;;;;;;2.35;1.42;;;;;;;19.09;53.07;96113.22;10441509;28;20028;-29
2023/10/18 00:15:11;;;;;;;1.70;1.33;;;;;;;19.09;53.16;96123.38;10445120;28;20036;-29
2023/10/18 00:20:15;;;;;;;2.15;1.40;;;;;;;19.12;52.76;96115.72;10440743;28;20025;-30
2023/10/18 00:25:16;;;;;;;2.33;1.40;;;;;;;19.10;53.08;96115.72;10432025;28;20427;-29
2023/10/18 00:30:19;;;;;;;1.40;0.90;;;;;;;19.09;52.99;96098.00;10431490;28;20067;-29
2023/10/18 00:35:20;;;;;;;1.33;1.10;;;;;;;19.09;52.63;96108.16;10444620;28;20040;-30
2023/10/18 00:40:33;;;;;;;1.58;1.10;;;;;;;19.06;53.17;96095.47;10437997;28;20182;-30
2023/10/18 00:45:39;;;;;;;2.20;1.40;;;;;;;19.08;52.92;96106.47;10450660;28;20303;-30
2023/10/18 00:50:45;;;;;;;2.45;1.45;;;;;;;19.08;52.92;96114.06;10431312;28;20061;-30
2023/10/18 00:55:48;;;;;;;1.45;1.17;;;;;;;19.08;52.93;96112.38;10428593;28;20033;-31
2023/10/18 01:00:50;;;;;;;2.03;1.25;;;;;;;19.07;53.22;96132.66;10442584;28;20033;-30
2023/10/18 01:06:03;;;;;;;3.40;1.40;;;;;;;19.06;52.82;96115.78;10434368;28;20041;-30
2023/10/18 01:11:10;;;;;;;2.10;1.23;;;;;;;19.04;53.13;96107.34;10443392;28;20113;-29
2023/10/18 01:16:15;;;;;;;3.97;1.20;;;;;;;19.08;52.96;96098.84;10439996;28;20065;-29
2023/10/18 01:21:18;;;;;;;1.75;1.17;;;;;;;19.07;52.91;96087.84;10450138;28;20033;-29
2023/10/18 01:26:24;;;;;;;2.72;1.20;;;;;;;19.06;53.10;96075.19;10441840;28;20487;-29
2023/10/18 01:31:24;;;;;;;1.52;1.00;;;;;;;19.03;52.96;96072.69;10450307;28;20060;-30
2023/10/18 01:36:32;;;;;;;2.60;1.17;;;;;;;19.07;52.83;96064.16;10441698;28;20052;-29
2023/10/18 01:41:34;;;;;;;2.38;1.30;;;;;;;19.08;53.31;96063.34;10426255;28;20036;-29
2023/10/18 01:46:48;;;;;;;1.77;1.27;;;;;;;19.06;52.87;96059.97;10449809;28;20033;-29
2023/10/18 01:51:51;;;;;;;1.67;1.08;;;;;;;19.02;52.88;96043.13;10437918;28;20063;-29
2023/10/18 01:56:54;;;;;;;1.30;0.98;;;;;;;19.06;53.03;96042.19;10437573;28;20041;-29
2023/10/18 02:01:58;;;;;;;2.28;1.30;;;;;;;19.06;53.02;96042.19;10440207;28;20021;-31
2023/10/18 02:07:01;;;;;;;2.03;1.33;;;;;;;19.05;52.97;96041.38;10424227;28;20103;-29
2023/10/18 02:12:05;;;;;;;2.90;1.15;;;;;;;19.02;52.89;96030.44;10431226;28;20636;-30
2023/10/18 02:17:09;;;;;;;1.83;1.55;;;;;;;19.06;52.94;96021.91;10444063;28;20052;-29
2023/10/18 02:22:13;;;;;;;1.67;1.10;;;;;;;19.06;52.80;96011.75;10432744;28;20054;-29
2023/10/18 02:27:16;;;;;;;1.85;1.33;;;;;;;19.02;52.69;95997.44;10437321;28;20038;-30
2023/10/18 02:32:23;;;;;;;1.58;1.00;;;;;;;19.08;52.70;95984.69;10444117;28;20036;-30
2023/10/18 02:37:24;;;;;;;1.02;0.93;;;;;;;19.08;52.76;95979.63;10431504;28;20036;-31
2023/10/18 02:42:25;;;;;;;3.05;1.40;;;;;;;19.07;53.12;95977.91;10441512;28;20031;-30
2023/10/18 02:47:26;;;;;;;1.33;1.13;;;;;;;19.07;52.70;95963.53;10434033;28;20037;-29
2023/10/18 02:52:30;;;;;;;1.77;1.30;;;;;;;19.07;52.43;95953.38;10433085;28;20033;-29
2023/10/18 02:57:33;;;;;;;1.75;1.15;;;;;;;19.08;52.56;95965.22;10426437;28;20041;-29
2023/10/18 03:02:33;;;;;;;3.65;1.17;;;;;;;19.08;53.07;95969.47;10432054;28;20483;-29
2023/10/18 03:07:36;;;;;;;1.35;1.02;;;;;;;19.10;52.75;95967.75;10445592;28;20040;-30
2023/10/18 03:12:37;;;;;;;2.08;1.05;;;;;;;19.08;52.76;95970.28;10424353;28;20034;-28
2023/10/18 03:17:38;;;;;;;1.65;1.15;;;;;;;19.08;52.67;95964.41;10442873;28;20028;-30
2023/10/18 03:22:43;;;;;;;1.50;1.30;;;;;;;19.07;52.76;95965.22;10434333;28;20447;-30
2023/10/18 03:27:50;;;;;;;2.13;1.92;;;;;;;19.06;52.88;95950.88;10442689;28;20029;-29
2023/10/18 03:32:50;;;;;;;1.25;1.15;;;;;;;19.05;52.77;95944.97;10433872;28;20052;-29
2023/10/18 03:37:53;;;;;;;1.30;1.00;;;;;;;19.07;52.69;95942.38;10422440;28;20033;-30
2023/10/18 03:42:54;;;;;;;2.15;1.00;;;;;;;19.07;52.76;95932.25;10431506;28;20055;-29
2023/10/18 03:47:58;;;;;;;1.10;0.82;;;;;;;19.07;52.68;95922.94;10427524;28;20072;-29
2023/10/18 03:52:58;;;;;;;1.45;1.13;;;;;;;19.01;53.29;95912.88;10411227;28;20032;-30
2023/10/18 03:57:58;;;;;;;1.50;0.90;;;;;;;19.00;53.13;95918.81;10428783;28;20036;-29
2023/10/18 04:03:08;;;;;;;1.10;1.00;;;;;;;19.08;52.60;95914.47;10445956;28;20037;-29
2023/10/18 04:08:15;;;;;;;2.65;1.30;;;;;;;19.12;52.37;95900.03;10435756;28;20287;-30
2023/10/18 04:13:17;;;;;;;1.80;1.48;;;;;;;19.14;52.55;95883.94;10446315;28;20036;-29
2023/10/18 04:18:25;;;;;;;1.27;0.93;;;;;;;19.16;52.85;95887.28;10436353;28;20072;-30
2023/10/18 04:23:26;;;;;;;2.60;1.10;;;;;;;19.14;53.04;95878.00;10432242;28;20116;-30
2023/10/18 04:28:37;;;;;;;2.97;0.80;;;;;;;19.16;52.73;95868.69;10439092;28;20499;-29
2023/10/18 04:33:48;;;;;;;2.88;1.20;;;;;;;19.18;52.64;95874.59;10448080;28;20322;-29
2023/10/18 04:38:51;;;;;;;1.10;0.82;;;;;;;19.18;52.91;95869.50;10437943;28;20042;-29
2023/10/18 04:43:57;;;;;;;3.92;1.00;;;;;;;19.19;52.52;95876.28;10438603;28;20048;-29
2023/10/18 04:54:03;;;;;;;1.43;1.17;;;;;;;19.19;52.59;95879.66;10432423;28;20407;-30
2023/10/18 05:04:32;;;;;;;6.07;2.20;;;;;;;19.22;52.63;95894.84;10438608;28;20506;-29
2023/10/18 05:14:42;;;;;;;5.95;2.10;;;;;;;19.22;52.52;95888.91;10451031;28;20048;-29
2023/10/18 05:19:47;;;;;;;7.70;1.65;;;;;;;19.22;52.36;95874.53;10443904;28;20037;-29
2023/10/18 05:24:55;;;;;;;8.95;2.13;;;;;;;19.23;52.24;95860.13;10438235;28;20553;-29
2023/10/18 05:29:57;;;;;;;7.13;2.67;;;;;;;19.04;50.67;95846.91;10436465;28;20044;-30
2023/10/18 05:35:03;;;;;;;6.70;2.58;;;;;;;19.09;51.33;95829.06;10438498;28;20166;-29
2023/10/18 05:45:23;;;;;;;5.05;2.28;;;;;;;19.17;51.33;95817.09;10448847;28;20094;-29
2023/10/18 05:50:24;;;;;;;7.87;2.17;;;;;;;19.18;51.31;95799.28;10431231;28;20048;-29
2023/10/18 05:55:24;;;;;;;7.70;2.00;;;;;;;19.18;51.45;95803.53;10438672;28;20061;-30
2023/10/18 06:00:25;;;;;;;12.37;2.73;;;;;;;19.19;51.43;95792.56;10439172;28;20034;-29
2023/10/18 06:05:30;;;;;;;7.72;2.78;;;;;;;19.23;51.46;95801.78;10434086;28;20052;-29
2023/10/18 06:10:32;;;;;;;3.13;1.63;;;;;;;19.20;51.53;95802.69;10442829;28;20025;-30
2023/10/18 06:15:38;;;;;;;6.25;2.22;;;;;;;19.22;51.60;95806.03;10438544;28;20040;-29
2023/10/18 06:20:41;;;;;;;9.75;2.15;;;;;;;19.18;51.66;95803.53;10431419;28;20041;-30
2023/10/18 06:25:45;;;;;;;5.70;2.20;;;;;;;19.21;51.66;95819.59;10440660;28;20478;-29
2023/10/18 06:30:49;;;;;;;3.38;1.60;;;;;;;19.22;51.41;95816.19;10437901;28;20063;-29
2023/10/18 06:35:52;;;;;;;7.40;2.20;;;;;;;19.21;51.69;95818.72;10438515;28;20032;-29
2023/10/18 06:41:00;;;;;;;9.63;1.98;;;;;;;19.22;51.60;95815.31;10433757;28;20139;-30
2023/10/18 06:46:04;;;;;;;3.17;1.80;;;;;;;19.21;51.92;95803.50;10444011;28;20037;-29
2023/10/18 06:51:11;;;;;;;3.08;1.90;;;;;;;19.23;51.55;95811.91;10440549;28;20033;-30
2023/10/18 06:56:19;;;;;;;3.60;1.92;;;;;;;19.21;51.28;95800.97;10441312;28;20723;-30
2023/10/18 07:01:19;;;;;;;2.83;1.70;;;;;;;19.21;51.76;95813.66;10443923;28;20514;-30
2023/10/18 07:06:23;;;;;;;3.53;1.40;;;;;;;19.20;51.71;95817.06;10435537;28;20052;-29
2023/10/18 07:11:25;;;;;;;4.68;1.58;;;;;;;19.22;51.71;95825.47;10433642;28;20637;-30
2023/10/18 07:21:32;;;;;;;5.00;1.95;;;;;;;19.22;51.87;95830.56;10436168;28;20029;-29
2023/10/18 07:26:33;;;;;;;2.42;1.50;;;;;;;19.19;51.68;95817.94;10439482;28;20030;-29
2023/10/18 07:31:38;;;;;;;2.53;1.42;;;;;;;19.21;51.30;95818.72;10432723;28;20435;-29
2023/10/18 07:36:38;;;;;;;2.78;1.77;;;;;;;19.20;51.54;95817.91;10439420;28;20025;-31
2023/10/18 07:41:40;;;;;;;4.22;1.60;;;;;;;19.20;51.75;95822.13;10438024;28;20024;-29
2023/10/18 07:46:41;;;;;;;2.88;1.55;;;;;;;19.20;51.82;95805.22;10440314;28;20025;-30
2023/10/18 07:51:55;;;;;;;2.23;1.60;;;;;;;19.20;51.85;95791.69;10448104;28;20025;-30
2023/10/18 07:56:56;;;;;;;3.35;1.60;;;;;;;19.20;51.97;95791.69;10443057;28;20029;-30
2023/10/18 08:02:19;;;;;;;2.67;1.40;;;;;;;19.20;51.79;95782.38;10444546;28;20025;-30
2023/10/18 08:07:20;;;;;;;2.40;1.65;;;;;;;19.19;52.07;95769.72;10450188;28;20060;-29
2023/10/18 08:12:33;;;;;;;2.50;2.25;;;;;;;19.17;52.11;95761.28;10453120;28;20144;-30
2023/10/18 08:17:43;;;;;;;3.58;1.85;;;;;;;19.16;52.35;95755.34;10438582;28;20156;-30
2023/10/18 08:22:43;;;;;;;3.33;1.63;;;;;;;19.17;52.00;95751.94;10441248;28;20029;-29
2023/10/18 08:27:44;;;;;;;2.83;1.52;;;;;;;19.16;52.11;95754.53;10446729;28;20041;-29
2023/10/18 08:32:44;;;;;;;2.00;1.63;;;;;;;19.17;52.31;95756.19;10444747;28;20029;-29
2023/10/18 08:37:45;;;;;;;2.00;1.43;;;;;;;19.16;52.22;95752.81;10438500;28;20038;-29
2023/10/18 08:42:51;;;;;;;1.52;1.25;;;;;;;19.14;52.25;95743.53;10447179;28;20021;-30
2023/10/18 08:47:57;;;;;;;2.28;1.52;;;;;;;19.16;52.22;95731.69;10440028;28;20063;-29
2023/10/18 08:52:57;;;;;;;2.88;1.73;;;;;;;19.14;52.39;95733.41;10436710;28;20034;-31
2023/10/18 08:57:58;;;;;;;2.17;1.50;;;;;;;19.14;52.11;95730.88;10446131;28;20515;-31
2023/10/18 09:02:58;;;;;;;3.40;1.30;;;;;;;19.14;52.21;95723.25;10446980;28;20116;-29
2023/10/18 09:08:05;;;;;;;2.17;1.40;;;;;;;19.14;52.12;95733.41;10444981;28;20029;-30
2023/10/18 09:18:14;;;;;;;2.15;1.30;;;;;;;19.13;51.98;95750.34;10444408;28;20478;-33
2023/10/18 09:23:21;;;;;;;2.63;1.50;;;;;;;19.12;52.23;95755.44;10440356;28;20108;-31
2023/10/18 09:28:25;;;;;;;1.67;1.58;;;;;;;19.10;52.36;95755.44;10447260;28;20075;-30
2023/10/18 09:33:32;;;;;;;1.65;1.17;;;;;;;19.10;52.35;95759.69;10445046;28;20483;-29
2023/10/18 09:38:39;;;;;;;4.03;1.70;;;;;;;19.11;52.49;95752.06;10431671;28;20039;-30
2023/10/18 09:43:40;;;;;;;2.17;1.40;;;;;;;19.10;52.30;95739.41;10446725;28;20155;-29
2023/10/18 09:48:42;;;;;;;1.53;1.40;;;;;;;19.09;52.39;95725.06;10442952;28;20609;-30
2023/10/18 09:53:44;;;;;;;2.08;1.60;;;;;;;19.12;52.50;95712.31;10441067;28;20025;-30
2023/10/18 09:58:49;;;;;;;1.65;1.30;;;;;;;19.09;52.39;95699.69;10448269;28;20029;-30
2023/10/18 10:03:52;;;;;;;1.63;1.40;;;;;;;19.12;52.23;95686.94;10445254;28;20045;-29
2023/10/18 10:09:09;;;;;;;1.48;1.20;;;;;;;19.14;51.86;95680.97;10441045;28;20025;-29
2023/10/18 10:14:10;;;;;;;;;;;;;;;19.15;52.09;95674.19;10447736;28;20183;-29
2023/10/18 10:19:13;;;;;;;2.35;1.35;;;;;;;19.16;51.66;95673.34;10444191;28;20361;-29
2023/10/18 10:24:32;;;;;;;2.25;1.50;;;;;;;19.21;51.44;95686.78;10443539;28;20548;-30
2023/10/18 10:29:34;;;;;;;2.60;1.20;;;;;;;19.22;51.52;95688.47;10442383;28;20380;-30
2023/10/18 10:34:36;;;;;;;2.03;1.05;;;;;;;19.23;51.43;95678.28;10443892;28;20029;-29
2023/10/18 10:39:49;;;;;;;3.10;1.88;;;;;;;19.17;51.25;95680.09;10442817;28;20032;-30
2023/10/18 10:45:02;;;;;;;3.67;1.80;;;;;;;19.15;51.62;95672.50;10447410;28;20028;-29
2023/10/18 10:50:07;;;;;;;3.08;1.48;;;;;;;19.20;51.65;95685.97;10442459;28;20064;-29
2023/10/18 10:55:22;;;;;;;2.33;1.70;;;;;;;19.19;51.69;95678.38;10432321;28;20139;-30
2023/10/18 11:00:37;;;;;;;2.95;1.83;;;;;;;19.20;51.44;95659.75;10442865;28;20091;-29
2023/10/18 11:05:39;;;;;;;5.40;1.50;;;;;;;19.19;51.19;95661.44;10438055;28;20534;-29
2023/10/18 11:10:39;;;;;;;3.15;1.52;;;;;;;19.23;51.21;95644.44;10441520;28;20068;-28
2023/10/18 11:15:43;;;;;;;1.23;1.13;;;;;;;19.22;51.38;95642.78;10442629;28;20049;-29
2023/10/18 11:20:57;;;;;;;2.20;1.70;;;;;;;19.16;51.45;95627.69;10439335;28;20056;-29
2023/10/18 11:26:08;;;;;;;5.13;2.45;;;;;;;19.16;51.25;95622.59;10437145;28;20403;-30
2023/10/18 11:31:09;;;;;;;10.38;6.68;;;;;;;19.17;53.01;95603.97;10442287;28;20033;-29
2023/10/18 11:36:12;;;;;;;22.70;14.60;;;;;;;19.13;53.65;95607.41;10444628;28;20045;-29
2023/10/18 11:41:14;;;;;;;18.13;10.60;;;;;;;19.09;53.56;95580.47;10436776;28;20487;-30
2023/10/18 11:46:14;;;;;;;31.65;9.20;;;;;;;19.15;52.72;95565.94;10445951;28;20090;-29
2023/10/18 11:51:15;;;;;;;7.20;4.47;;;;;;;19.04;53.06;95560.25;10438423;28;20087;-29
2023/10/18 11:56:17;;;;;;;9.60;5.87;;;;;;;19.02;52.50;95538.31;10436877;28;20052;-29
2023/10/18 12:01:18;;;;;;;15.07;7.90;;;;;;;18.99;53.58;95528.25;10446037;28;20033;-29
2023/10/18 12:06:21;;;;;;;11.40;7.45;;;;;;;18.97;53.59;95510.53;10445185;28;20436;-30
2023/10/18 12:11:22;;;;;;;15.77;6.55;;;;;;;18.96;52.95;95508.00;10441415;28;20052;-29
2023/10/18 12:16:22;;;;;;;12.50;7.50;;;;;;;18.95;53.25;95499.56;10444988;28;20039;-29
2023/10/18 12:21:29;;;;;;;13.20;7.47;;;;;;;18.96;53.36;95487.72;10446499;28;20033;-30
2023/10/18 12:26:35;;;;;;;12.15;7.38;;;;;;;18.95;53.74;95475.91;10438536;28;20037;-29
2023/10/18 12:31:39;;;;;;;;;;;;;;;18.94;53.87;95469.16;10438243;28;20042;-29
2023/10/18 12:36:40;;;;;;;13.30;7.30;;;;;;;18.94;53.75;95464.09;10452648;28;19919;-30
2023/10/18 12:41:40;;;;;;;15.37;7.10;;;;;;;18.94;53.63;95438.75;10447361;28;20040;-29
2023/10/18 12:46:41;;;;;;;9.90;7.30;;;;;;;18.93;53.51;95439.59;10450910;28;20033;-29
2023/10/18 12:51:42;;;;;;;14.45;8.27;;;;;;;18.92;53.74;95441.28;10447185;28;20065;-29
2023/10/18 12:56:55;;;;;;;12.70;7.25;;;;;;;18.93;53.53;95442.16;10448094;28;20033;-30
2023/10/18 13:01:59;;;;;;;30.13;8.13;;;;;;;18.98;53.67;95440.31;10444997;28;20021;-29
2023/10/18 13:07:19;;;;;;;16.25;8.25;;;;;;;18.95;53.62;95425.19;10433974;28;20557;-29
2023/10/18 13:12:23;;;;;;;12.05;7.00;;;;;;;18.92;53.30;95421.00;10438107;28;20116;-29
2023/10/18 13:17:24;;;;;;;13.13;7.43;;;;;;;18.89;53.76;95413.47;10449298;28;20415;-28
2023/10/18 13:22:26;;;;;;;16.90;6.97;;;;;;;18.90;53.78;95416.81;10428968;28;20040;-28
2023/10/18 13:27:36;;;;;;;14.85;6.57;;;;;;;18.94;54.15;95423.50;10425450;28;20044;-30
2023/10/18 13:32:37;;;;;;;10.90;6.60;;;;;;;18.96;54.04;95447.13;10435349;28;20079;-30
2023/10/18 13:37:37;;;;;;;14.60;6.67;;;;;;;18.94;53.79;95472.56;10430973;28;20115;-29
2023/10/18 13:42:41;;;;;;;12.55;5.95;;;;;;;18.95;54.09;95496.19;10441301;28;20033;-31
2023/10/18 13:47:41;;;;;;;11.55;7.28;;;;;;;18.93;53.68;95508.91;10433678;28;20029;-29
2023/10/18 13:52:41;;;;;;;14.73;7.43;;;;;;;18.90;53.76;95500.50;10420200;28;20719;-31
2023/10/18 13:57:42;;;;;;;21.30;7.47;;;;;;;18.96;53.72;95500.41;10443129;28;20280;-29
2023/10/18 14:02:43;;;;;;;18.10;7.30;;;;;;;18.98;53.37;95502.03;10427319;28;20033;-29
2023/10/18 14:07:44;;;;;;;16.85;7.43;;;;;;;18.94;53.78;95489.47;10433062;28;20079;-29
2023/10/18 14:12:48;;;;;;;17.15;7.25;;;;;;;18.99;53.80;95503.69;10434676;28;20036;-31
2023/10/18 14:17:55;;;;;;;23.65;8.52;;;;;;;18.94;54.22;95479.31;10437205;28;20482;-30
2023/10/18 14:22:59;;;;;;;17.63;6.45;;;;;;;18.92;54.19;95471.72;10437950;28;20633;-29
2023/10/18 14:27:59;;;;;;;20.00;7.43;;;;;;;18.94;53.83;95461.56;10447961;28;20040;-30
2023/10/18 14:32:59;;;;;;;18.13;6.63;;;;;;;18.95;54.20;95451.38;10437988;28;20033;-31
2023/10/18 14:38:00;;;;;;;15.93;5.13;;;;;;;18.95;54.28;95440.41;10436917;28;20072;-29
2023/10/18 14:43:03;;;;;;;13.15;5.05;;;;;;;18.98;54.29;95427.63;10444301;28;20033;-29
2023/10/18 14:48:04;;;;;;;20.40;7.28;;;;;;;18.97;54.38;95429.34;10435273;28;20067;-29
2023/10/18 14:53:07;;;;;;;16.73;6.43;;;;;;;18.94;54.63;95433.66;10425806;28;20473;-29
2023/10/18 14:58:07;;;;;;;19.25;6.30;;;;;;;18.93;54.65;95432.81;10424540;28;20028;-29
2023/10/18 15:03:10;;;;;;;10.17;5.50;;;;;;;18.93;54.62;95420.13;10433402;28;20022;-30
2023/10/18 15:08:12;;;;;;;18.42;6.05;;;;;;;18.92;54.62;95407.50;10439927;28;20670;-29
2023/10/18 15:13:13;;;;;;;13.80;6.07;;;;;;;18.91;54.76;95403.31;10439990;28;20123;-29
2023/10/18 15:18:14;;;;;;;9.75;4.90;;;;;;;18.87;54.50;95374.66;10443475;28;20657;-29
2023/10/18 15:23:14;;;;;;;14.15;4.97;;;;;;;18.91;54.71;95388.91;10443087;28;20021;-29
2023/10/18 15:28:15;;;;;;;15.48;5.80;;;;;;;18.87;54.58;95381.41;10441584;28;20043;-29
2023/10/18 15:33:19;;;;;;;12.47;5.50;;;;;;;18.90;54.74;95372.03;10424327;28;20115;-29
2023/10/18 15:38:20;;;;;;;19.85;8.05;;;;;;;18.90;54.71;95366.13;10433181;28;20076;-30
2023/10/18 15:43:21;;;;;;;17.40;6.80;;;;;;;18.84;55.21;95362.03;10438689;28;20119;-29
2023/10/18 15:48:21;;;;;;;10.37;4.93;;;;;;;18.87;55.03;95358.59;10428988;28;20406;-30
2023/10/18 15:53:23;;;;;;;19.80;6.23;;;;;;;18.88;54.96;95332.34;10432098;28;20403;-31
2023/10/18 15:58:24;;;;;;;14.65;6.15;;;;;;;18.87;55.23;95321.41;10448326;28;20549;-30
2023/10/18 16:03:24;;;;;;;18.13;5.63;;;;;;;18.89;55.02;95321.34;10441108;28;20097;-29
2023/10/18 16:08:25;;;;;;;13.32;6.15;;;;;;;18.88;55.71;95318.00;10447740;28;20040;-30
2023/10/18 16:13:25;;;;;;;15.85;5.93;;;;;;;18.96;55.31;95305.97;10455344;28;20033;-29
2023/10/18 16:18:25;;;;;;;22.47;6.60;;;;;;;19.00;54.62;95296.56;10446916;28;20041;-29
2023/10/18 16:23:27;;;;;;;34.78;8.15;;;;;;;19.04;55.26;95300.69;10453708;28;20279;-29
2023/10/18 16:28:28;;;;;;;37.92;8.15;;;;;;;19.09;54.76;95291.28;10450061;28;20033;-30
2023/10/18 16:33:30;;;;;;;16.48;5.55;;;;;;;19.12;55.24;95296.25;10449125;28;20040;-29
2023/10/18 16:38:31;;;;;;;21.55;6.30;;;;;;;19.18;54.36;95284.25;10431253;28;20067;-29
2023/10/18 16:43:33;;;;;;;28.70;6.93;;;;;;;19.20;54.69;95286.78;10447427;28;20033;-30
2023/10/18 16:48:35;;;;;;;20.42;5.72;;;;;;;19.18;54.64;95273.28;10452805;28;20040;-29
2023/10/18 16:53:40;;;;;;;19.98;6.47;;;;;;;19.12;54.59;95269.19;10442529;28;20087;-30
2023/10/18 16:58:40;;;;;;;15.38;5.22;;;;;;;19.13;54.73;95275.94;10454878;28;20025;-29
2023/10/18 17:03:41;;;;;;;16.15;6.28;;;;;;;19.13;54.68;95272.56;10445923;28;20115;-31
2023/10/18 17:08:44;;;;;;;13.68;5.57;;;;;;;19.12;54.58;95268.34;10451078;28;20414;-30
2023/10/18 17:13:47;;;;;;;15.15;6.60;;;;;;;19.11;54.89;95270.09;10442874;28;20063;-29
2023/10/18 17:18:48;;;;;;;19.42;5.25;;;;;;;19.09;54.52;95265.91;10450674;28;20037;-30
2023/10/18 17:23:49;;;;;;;19.27;6.22;;;;;;;19.10;54.23;95265.84;10446132;28;20057;-29
2023/10/18 17:28:49;;;;;;;16.93;5.47;;;;;;;19.09;54.83;95260.84;10447810;28;20476;-29
2023/10/18 17:33:50;;;;;;;10.68;4.78;;;;;;;19.08;54.68;95259.19;10437005;28;20287;-29
2023/10/18 17:38:50;;;;;;;10.07;4.37;;;;;;;19.06;54.79;95250.75;10445074;28;20041;-29
2023/10/18 17:43:50;;;;;;;16.50;5.60;;;;;;;19.05;54.97;95249.09;10430034;28;20116;-29
2023/10/18 17:48:52;;;;;;;16.27;5.07;;;;;;;19.04;54.94;95252.50;10442559;28;20049;-29
2023/10/18 17:53:52;;;;;;;20.60;4.72;;;;;;;19.07;54.62;95247.34;10443765;28;20052;-30
2023/10/18 17:58:53;;;;;;;12.65;4.00;;;;;;;19.05;54.80;95238.94;10447069;28;20037;-30
2023/10/18 18:03:56;;;;;;;15.23;4.73;;;;;;;19.10;54.48;95227.00;10444250;28;20555;-26
2023/10/18 18:08:56;;;;;;;9.93;4.65;;;;;;;19.14;54.71;95233.63;10434023;28;20062;-27
2023/10/18 18:13:58;;;;;;;12.90;4.40;;;;;;;19.12;54.73;95227.78;10439444;28;20049;-27
2023/10/18 18:18:58;;;;;;;13.18;5.28;;;;;;;19.13;54.80;95232.81;10433055;28;20306;-26
2023/10/18 18:23:58;;;;;;;14.27;4.80;;;;;;;19.10;54.97;95237.13;10439356;28;20032;-27
2023/10/18 18:28:59;;;;;;;9.97;3.70;;;;;;;19.08;54.76;95239.69;10434220;28;20288;-28
2023/10/18 18:34:00;;;;;;;9.95;4.13;;;;;;;19.06;54.97;95248.22;10435160;28;20182;-26
2023/10/18 18:39:03;;;;;;;10.63;4.20;;;;;;;19.04;54.80;95249.97;10438550;28;20545;-27
2023/10/18 18:44:04;;;;;;;8.00;3.97;;;;;;;19.02;54.68;95254.25;10436999;28;20104;-28
2023/10/18 18:49:06;;;;;;;9.18;4.15;;;;;;;19.00;55.16;95259.34;10442109;28;20040;-27
2023/10/18 18:54:06;;;;;;;8.40;4.10;;;;;;;19.00;55.10;95261.88;10431750;28;20079;-27
2023/10/18 18:59:07;;;;;;;11.65;4.90;;;;;;;19.00;55.22;95264.41;10437758;28;20486;-27
2023/10/18 19:04:07;;;;;;;9.40;4.30;;;;;;;18.99;55.32;95246.72;10430810;28;20056;-27
2023/10/18 19:09:08;;;;;;;9.07;3.88;;;;;;;18.99;55.37;95245.00;10423462;28;20395;-27
2023/10/18 19:14:08;;;;;;;9.55;4.68;;;;;;;19.01;55.60;95257.66;10439440;28;20128;-27
2023/10/18 19:19:09;;;;;;;10.97;4.20;;;;;;;18.98;55.64;95242.50;10440802;28;20036;-28
2023/10/18 19:24:09;;;;;;;8.57;4.37;;;;;;;18.98;55.62;95247.56;10440511;28;20422;-28
2023/10/18 19:29:11;;;;;;;8.13;3.80;;;;;;;18.96;56.06;95241.72;10441353;28;20407;-28
2023/10/18 19:34:11;;;;;;;12.18;5.38;;;;;;;18.92;56.02;95242.69;10448663;28;20052;-28
2023/10/18 19:39:13;;;;;;;7.60;4.63;;;;;;;18.92;57.65;95240.97;10436704;28;20371;-29
2023/10/18 19:44:14;;;;;;;10.32;4.13;;;;;;;18.90;57.24;95240.16;10448088;28;20055;-28
2023/10/18 19:49:17;;;;;;;11.05;3.95;;;;;;;18.95;57.10;95234.97;10440847;28;20116;-29
2023/10/18 19:54:17;;;;;;;8.15;4.22;;;;;;;18.94;57.77;95220.63;10438512;28;20121;-29
2023/10/18 19:59:17;;;;;;;9.17;3.70;;;;;;;18.93;57.83;95234.19;10440856;28;20119;-28
2023/10/18 20:04:19;;;;;;;10.52;4.03;;;;;;;18.91;57.62;95226.63;10442883;28;20127;-28
2023/10/18 20:09:19;;;;;;;8.18;4.32;;;;;;;18.91;58.49;95225.81;10439673;28;20032;-28
2023/10/18 20:14:20;;;;;;;7.93;3.97;;;;;;;18.90;58.21;95231.72;10447217;28;20037;-29
2023/10/18 20:19:20;;;;;;;10.63;4.15;;;;;;;18.89;58.32;95222.44;10440209;28;20767;-28
2023/10/18 20:24:20;;;;;;;8.50;3.10;;;;;;;18.89;58.74;95222.44;10437022;28;20048;-29
2023/10/18 20:29:21;;;;;;;6.73;3.23;;;;;;;18.90;58.41;95224.09;10448156;28;20288;-28
2023/10/18 20:34:22;;;;;;;7.57;3.33;;;;;;;18.87;58.49;95219.97;10440913;28;20039;-28
2023/10/18 20:39:22;;;;;;;7.93;4.38;;;;;;;18.90;58.23;95213.97;10445917;28;20458;-30
2023/10/18 20:44:27;;;;;;;4.50;3.10;;;;;;;18.86;58.73;95207.31;10446729;28;20040;-28
2023/10/18 20:49:32;;;;;;;14.98;6.47;;;;;;;18.85;58.24;95205.66;10440846;28;20824;-29
2023/10/18 20:54:37;;;;;;;8.05;3.65;;;;;;;18.89;57.97;95207.22;10446948;28;20079;-28
2023/10/18 20:59:38;;;;;;;11.93;4.70;;;;;;;18.88;58.79;95192.91;10446353;28;20065;-29
2023/10/18 21:04:38;;;;;;;8.98;3.15;;;;;;;18.88;58.48;95191.22;10454550;28;20025;-28
2023/10/18 21:09:40;;;;;;;7.07;3.47;;;;;;;18.87;58.67;95183.63;10446097;28;20029;-29
2023/10/18 21:14:41;;;;;;;10.55;3.08;;;;;;;18.89;58.36;95186.94;10447602;28;20063;-28
2023/10/18 21:19:41;;;;;;;5.47;2.63;;;;;;;18.87;58.43;95181.94;10446099;28;20060;-29
2023/10/18 21:24:46;;;;;;;10.50;3.47;;;;;;;18.89;58.67;95186.94;10446061;28;20545;-29
2023/10/18 21:29:46;;;;;;;4.68;2.88;;;;;;;18.89;57.85;95184.41;10447929;28;20040;-29
2023/10/18 21:34:46;;;;;;;6.47;3.50;;;;;;;18.88;58.37;95167.53;10447867;28;20040;-28
2023/10/18 21:39:47;;;;;;;7.83;2.77;;;;;;;18.87;57.98;95176.88;10447590;28;20089;-28
2023/10/18 21:44:47;;;;;;;7.67;2.90;;;;;;;18.87;58.20;95178.56;10450519;28;20040;-28
2023/10/18 21:49:49;;;;;;;6.45;2.80;;;;;;;18.88;58.41;95180.22;10444621;28;20032;-28
2023/10/18 21:54:49;;;;;;;6.88;3.10;;;;;;;18.85;58.59;95175.25;10444953;28;20025;-28
2023/10/18 21:59:52;;;;;;;7.70;2.87;;;;;;;18.86;58.58;95174.38;10447158;28;20029;-28
2023/10/18 22:04:53;;;;;;;6.00;3.00;;;;;;;18.87;57.80;95158.28;10443913;28;20124;-28
2023/10/18 22:09:54;;;;;;;4.82;3.10;;;;;;;18.86;57.80;95166.75;10442608;28;20032;-29
2023/10/18 22:14:54;;;;;;;5.75;2.65;;;;;;;18.86;58.01;95161.69;10441560;28;20114;-28
2023/10/18 22:19:57;;;;;;;7.23;3.60;;;;;;;18.85;57.97;95160.03;10452306;28;20121;-28
2023/10/18 22:24:58;;;;;;;4.57;2.78;;;;;;;18.84;57.72;95150.75;10437992;28;20294;-29
2023/10/18 22:30:06;;;;;;;5.00;2.80;;;;;;;18.85;57.93;95135.47;10451572;28;20402;-29
2023/10/18 22:35:07;;;;;;;4.63;2.75;;;;;;;18.84;58.02;95138.09;10448945;28;20040;-29
2023/10/18 22:40:10;;;;;;;4.32;2.45;;;;;;;18.83;58.39;95149.91;10444925;28;20047;-29
2023/10/18 22:50:27;;;;;;;5.68;2.90;;;;;;;18.84;57.54;95143.97;10446077;28;20483;-29
2023/10/18 22:55:27;;;;;;;5.47;2.60;;;;;;;18.83;57.68;95142.31;10435239;28;20076;-29
2023/10/18 23:00:31;;;;;;;5.68;2.92;;;;;;;18.82;58.02;95139.84;10443979;28;20060;-28
2023/10/18 23:05:32;;;;;;;5.38;2.72;;;;;;;18.81;57.55;95143.22;10429315;28;20029;-29
2023/10/18 23:10:45;;;;;;;4.20;2.63;;;;;;;18.82;57.64;95150.78;10439265;28;20525;-29
2023/10/18 23:15:47;;;;;;;5.03;2.75;;;;;;;18.82;58.11;95139.84;10436366;28;20505;-28
2023/10/18 23:20:57;;;;;;;4.07;2.60;;;;;;;18.83;57.44;95100.94;10448265;28;20116;-29
2023/10/18 23:36:40;;;;;;;4.35;2.25;;;;;;;18.79;57.55;95082.44;10424692;28;20074;-28
2023/10/18 23:41:48;;;;;;;5.70;2.87;;;;;;;18.80;57.73;95075.63;10440601;28;20037;-29
2023/10/18 23:46:59;;;;;;;4.47;2.78;;;;;;;18.80;57.74;95073.94;10443497;28;20033;-28
2023/10/18 23:52:16;;;;;;;3.83;2.72;;;;;;;18.82;57.86;95073.91;10442213;28;20071;-30
2023/10/18 23:57:16;;;;;;;4.65;2.80;;;;;;;18.81;57.59;95067.16;10446687;28;20037;-28
